Latest Weather Observations for Kadina

IDS60801

Issued at 3:35 pm CST Saturday 30 August 2014 (issued every 30 minutes, with the page automatically refreshed every 10 minutes)

About weather observations | Map of weather stations | Latest weather observations for SA | Other Formats
Station Details ID: 022050 Name: KADINA AWS Lat: -33.97 Lon: 137.66 Height: 41.14 m
Data from the previous 72 hours. | See also: Recent months at Kadina
Date/Time
CST
Temp
°C
App
Temp
°C
Dew
Point
Rel
Hum
%
Delta-T
°C
Wind Press
QNH
hPa
Press
MSL
hPa
Rain
since 9 am
mm
Dir
 
Spd
km/h
Gust
km/h
Spd
kts
Gust
kts
30/03:30pm 23.2 16.8 3.2 27 9.6 N 26 35 14 19 1018.7 - 0.0
30/03:00pm 23.3 16.8 2.7 26 9.8 N 26 33 14 18 1019.1 1019.1 0.0
30/02:30pm 23.2 16.3 2.7 26 9.8 N 28 39 15 21 1019.3 - 0.0
30/02:00pm 23.2 16.5 1.5 24 10.1 N 26 37 14 20 1019.6 - 0.0
30/01:30pm 23.6 16.5 3.5 27 9.8 N 30 39 16 21 1019.9 - 0.0
30/01:00pm 22.9 16.3 1.8 25 9.9 N 26 37 14 20 1020.6 - 0.0
30/12:30pm 22.6 16.5 2.7 27 9.5 N 24 35 13 19 1021.2 - 0.0
30/12:00pm 21.9 15.6 3.6 30 8.8 N 26 33 14 18 1021.7 1021.7 0.0
30/11:30am 21.9 15.6 3.6 30 8.8 N 26 37 14 20 1022.2 - 0.0
30/11:00am 20.8 15.0 4.4 34 8.0 N 24 35 13 19 1022.6 - 0.0
30/10:30am 19.8 15.5 6.9 43 6.5 N 19 24 10 13 1022.9 - 0.0
30/10:00am 18.4 15.0 9.2 55 4.8 N 17 20 9 11 1023.3 - 0.0
30/09:30am 17.6 14.5 8.7 56 4.6 N 15 20 8 11 1023.3 - 0.0
30/09:00am 15.8 12.8 9.2 65 3.4 NNE 15 20 8 11 1023.5 1023.5 0.0
30/08:30am 12.9 9.7 8.6 75 2.1 NNE 15 19 8 10 1023.6 - 0.0
30/08:00am 9.7 7.1 7.8 88 0.9 NE 11 13 6 7 1023.5 - 0.0
30/07:30am 5.0 1.6 3.8 92 0.5 ENE 11 13 6 7 1023.2 - 0.0
30/07:00am 2.6 -1.2 1.7 94 0.3 E 11 13 6 7 1023.0 - 0.0
30/06:30am 2.2 -1.7 1.3 94 0.3 E 11 13 6 7 1023.0 - 0.0
30/06:00am 2.4 -1.8 1.5 94 0.3 E 13 13 7 7 1023.0 1023.0 0.0
30/05:30am 2.6 -1.6 1.7 94 0.3 E 13 13 7 7 1023.0 - 0.0
30/05:00am 2.5 -1.3 1.6 94 0.3 E 11 13 6 7 1023.1 - 0.0
30/04:30am 2.7 -1.1 1.8 94 0.3 E 11 13 6 7 1023.1 - 0.0
30/04:00am 3.1 -0.3 2.1 93 0.4 E 9 11 5 6 1023.1 - 0.0
30/03:30am 4.0 1.1 2.8 92 0.5 E 7 7 4 4 1023.1 - 0.0
30/03:00am 4.9 2.4 3.9 93 0.4 ENE 6 7 3 4 1023.2 1023.2 0.0
30/02:30am 4.5 1.3 3.2 91 0.5 E 9 9 5 5 1023.2 - 0.0
30/02:00am 5.6 2.6 4.1 90 0.6 ENE 9 11 5 6 1023.3 - 0.0
30/01:30am 7.4 4.7 5.5 88 0.8 ENE 9 28 5 15 1023.6 - 0.0
30/01:00am 6.7 2.8 5.3 91 0.6 ESE 15 17 8 9 1023.6 - 0.0
30/12:30am 6.8 2.9 5.4 91 0.6 ESE 15 17 8 9 1023.9 - 0.0
30/12:00am 6.9 3.0 5.5 91 0.6 ESE 15 17 8 9 1024.0 1023.9 0.0
 
Date/Time
CST
Temp
°C
App
Temp
°C
Dew
Point
Rel
Hum
%
Delta-T
°C
Wind Press
QNH
hPa
Press
MSL
hPa
Rain
since 9 am
mm
Dir
 
Spd
km/h
Gust
km/h
Spd
kts
Gust
kts
29/11:30pm 7.2 3.1 6.0 92 0.5 SE 17 19 9 10 1024.1 - 0.0
29/11:00pm 7.1 2.9 5.9 92 0.5 ESE 17 17 9 9 1024.2 - 0.0
29/10:30pm 7.1 3.3 5.9 92 0.5 ESE 15 17 8 9 1024.5 - 0.0
29/10:00pm 8.0 4.0 6.6 91 0.6 ESE 17 19 9 10 1024.6 - 0.0
29/09:30pm 8.4 4.5 7.2 92 0.6 ESE 17 20 9 11 1024.8 - 0.0
29/09:00pm 8.5 4.6 7.3 92 0.6 ESE 17 20 9 11 1024.8 1024.7 0.0
29/08:30pm 9.1 5.7 7.7 91 0.7 ESE 15 20 8 11 1024.8 - 0.0
29/08:00pm 9.5 5.9 6.9 84 1.2 ESE 15 19 8 10 1024.7 - 0.0
29/07:30pm 10.7 8.0 7.4 80 1.6 ESE 11 13 6 7 1024.7 - 0.0
29/07:00pm 11.8 9.9 7.7 76 2.0 NE 7 11 4 6 1024.5 - 0.0
29/06:30pm 15.1 14.0 9.9 71 2.7 N 6 6 3 3 1024.4 - 0.0
29/06:00pm 17.8 16.9 10.7 63 3.8 N 6 6 3 3 1024.4 1024.3 0.0
29/05:30pm 20.3 19.3 11.0 55 5.1 N 7 9 4 5 1024.5 - 0.0
29/05:00pm 21.2 19.7 10.7 51 5.8 N 9 9 5 5 1024.5 - 0.0
29/04:30pm 22.1 20.2 8.9 43 7.0 N 9 11 5 6 1024.6 - 0.0
29/04:00pm 22.5 19.9 7.9 39 7.7 N 11 17 6 9 1024.6 - 0.0
29/03:30pm 22.6 19.2 6.0 34 8.4 N 13 20 7 11 1024.8 - 0.0
29/03:00pm 22.7 18.5 5.6 33 8.6 N 17 22 9 12 1025.0 1024.9 0.0
29/02:30pm 22.9 18.5 4.9 31 9.0 N 17 20 9 11 1025.2 - 0.0
29/02:00pm 22.9 18.6 5.3 32 8.8 N 17 22 9 12 1025.6 - 0.0
29/01:30pm 22.7 18.3 4.7 31 8.9 N 17 24 9 13 1025.8 - 0.0
29/01:00pm 22.9 19.2 6.2 34 8.5 N 15 20 8 11 1026.3 - 0.0
29/12:30pm 22.7 18.9 5.6 33 8.6 N 15 22 8 12 1026.9 - 0.0
29/12:00pm 22.5 19.5 5.9 34 8.3 N 11 17 6 9 1027.5 1027.4 0.0
29/11:30am 21.8 18.3 5.3 34 8.2 N 13 19 7 10 1027.9 - 0.0
29/11:00am 21.5 19.4 9.7 47 6.4 NNE 11 17 6 9 1028.2 - 0.0
29/10:30am 19.9 17.4 9.8 52 5.4 NNE 13 19 7 10 1028.4 - 0.0
29/10:00am 18.6 16.9 11.2 62 4.0 NNE 11 17 6 9 1028.5 - 0.0
29/09:30am 16.5 14.3 9.4 63 3.7 NNE 11 15 6 8 1028.6 - 0.0
29/09:00am 14.9 12.4 8.4 65 3.3 NE 11 15 6 8 1028.6 1028.5 0.0
29/08:30am 12.8 11.5 9.8 82 1.5 E 7 9 4 5 1028.5 - 0.0
29/08:00am 9.0 6.7 7.5 90 0.7 ENE 9 11 5 6 1028.1 - 0.0
29/07:30am 5.4 2.1 4.4 93 0.4 E 11 13 6 7 1027.9 - 0.0
29/07:00am 3.6 -0.8 2.9 95 0.3 E 15 17 8 9 1027.8 - 0.0
29/06:30am 3.3 -0.7 2.6 95 0.3 E 13 13 7 7 1027.6 - 0.0
29/06:00am 3.5 -0.1 2.8 95 0.3 E 11 11 6 6 1027.4 1027.3 0.0
29/05:30am 3.7 0.1 2.8 94 0.4 E 11 13 6 7 1027.2 - 0.0
29/05:00am 4.1 0.2 3.2 94 0.4 ESE 13 13 7 7 1027.1 - 0.0
29/04:30am 4.9 0.8 4.2 95 0.3 ESE 15 17 8 9 1027.0 - 0.0
29/04:00am 5.3 1.6 4.6 95 0.3 ESE 13 17 7 9 1027.0 - 0.0
29/03:30am 4.9 0.7 4.0 94 0.4 ESE 15 15 8 8 1026.9 - 0.0
29/03:00am 5.2 1.5 4.3 94 0.4 ESE 13 15 7 8 1027.1 1027.0 0.0
29/02:30am 5.4 1.7 4.5 94 0.4 ESE 13 15 7 8 1027.2 - 0.0
29/02:00am 5.7 2.1 4.8 94 0.4 ESE 13 15 7 8 1027.3 - 0.0
29/01:30am 5.7 2.1 4.8 94 0.4 ESE 13 15 7 8 1027.5 - 0.0
29/01:00am 6.2 2.3 5.3 94 0.4 E 15 17 8 9 1027.6 - 0.0
29/12:30am 7.3 3.6 6.2 93 0.5 ESE 15 17 8 9 1027.7 - 0.0
29/12:00am 7.4 3.3 6.3 93 0.5 E 17 19 9 10 1027.8 1027.7 0.0
 
Date/Time
CST
Temp
°C
App
Temp
°C
Dew
Point
Rel
Hum
%
Delta-T
°C
Wind Press
QNH
hPa
Press
MSL
hPa
Rain
since 9 am
mm
Dir
 
Spd
km/h
Gust
km/h
Spd
kts
Gust
kts
28/11:30pm 7.4 3.4 6.5 94 0.4 E 17 17 9 9 1027.9 - 0.0
28/11:00pm 7.5 3.4 6.4 93 0.5 ESE 17 19 9 10 1027.8 - 0.0
28/10:30pm 7.9 3.9 6.5 91 0.6 ESE 17 20 9 11 1027.9 - 0.0
28/10:00pm 8.2 4.3 7.0 92 0.6 SE 17 20 9 11 1028.0 - 0.0
28/09:30pm 7.3 3.6 6.1 92 0.5 ESE 15 15 8 8 1027.7 - 0.0
28/09:00pm 7.7 4.0 6.5 92 0.5 SE 15 17 8 9 1027.6 1027.5 0.0
28/08:30pm 8.0 4.3 6.5 90 0.7 SE 15 17 8 9 1027.4 - 0.0
28/08:00pm 8.9 5.2 6.5 85 1.1 SE 15 17 8 9 1027.3 - 0.0
28/07:30pm 9.9 7.6 7.3 84 1.2 SE 9 11 5 6 1027.1 - 0.0
28/07:00pm 11.3 9.3 7.2 76 2.0 SSE 7 9 4 5 1026.9 - 0.0
28/06:30pm 13.4 12.6 8.0 70 2.7 SSE 2 7 1 4 1026.7 - 0.0
28/06:00pm 15.6 14.8 9.7 68 3.1 E 4 7 2 4 1026.7 1026.6 0.0
28/05:30pm 18.5 17.3 10.3 59 4.4 N 7 7 4 4 1026.6 - 0.0
28/05:00pm 20.1 18.6 10.5 54 5.2 N 9 9 5 5 1026.6 - 0.0
28/04:30pm 21.3 19.2 8.2 43 6.9 N 9 13 5 7 1026.6 - 0.0
28/04:00pm 21.5 19.2 7.3 40 7.3 N 9 13 5 7 1026.6 - 0.0
28/03:30pm 21.9 19.8 8.1 41 7.2 N 9 15 5 8 1026.6 - 0.0
28/03:00pm 21.9 18.4 7.0 38 7.6 N 15 22 8 12 1026.9 1026.8 0.0
28/02:30pm 22.0 18.9 7.4 39 7.6 N 13 17 7 9 1027.1 - 0.0
28/02:00pm 21.7 18.1 6.8 38 7.6 N 15 19 8 10 1027.1 - 0.0
28/01:30pm 21.6 18.1 7.4 40 7.3 N 15 20 8 11 1027.2 - 0.0
28/01:00pm 21.6 17.8 9.2 45 6.6 N 19 24 10 13 1027.6 - 0.0
28/12:30pm 21.3 17.3 8.2 43 6.9 N 19 26 10 14 1027.9 - 0.0
28/12:00pm 21.4 17.9 8.7 44 6.7 N 17 24 9 13 1028.1 1028.0 0.0
28/11:30am 20.4 16.2 8.1 45 6.4 N 20 26 11 14 1028.3 - 0.0
28/11:00am 20.5 16.7 9.7 50 5.8 N 20 26 11 14 1028.4 - 0.0
28/10:30am 19.9 16.9 10.6 55 5.1 N 17 22 9 12 1028.6 - 0.0
28/10:00am 18.3 15.2 10.4 60 4.2 N 17 22 9 12 1028.8 - 0.0
28/09:30am 16.5 15.0 10.4 67 3.2 NNE 9 17 5 9 1029.0 - 0.0
28/09:00am 14.6 13.1 10.4 76 2.2 ENE 9 11 5 6 1028.8 1028.7 0.0
28/08:30am 11.0 9.1 9.1 88 0.9 ENE 9 11 5 6 1028.6 - 0.0
28/08:00am 7.9 5.0 6.7 92 0.6 E 11 13 6 7 1028.5 - 0.0
28/07:30am 5.2 1.9 4.3 94 0.4 ESE 11 13 6 7 1028.5 - 0.0
28/07:00am 3.2 -0.9 2.3 94 0.4 ESE 13 15 7 8 1028.3 - 0.0
28/06:30am 3.0 -1.1 2.0 93 0.4 ESE 13 13 7 7 1028.0 - 0.0
28/06:00am 3.5 0.2 2.5 93 0.4 ESE 9 11 5 6 1027.6 1027.5 0.0
28/05:30am 4.1 -0.2 3.2 94 0.4 SE 15 15 8 8 1027.4 - 0.0
28/05:00am 4.1 0.1 3.1 93 0.4 ESE 13 15 7 8 1027.2 - 0.0
28/04:30am 4.2 0.3 3.2 93 0.4 ESE 13 15 7 8 1027.0 - 0.0
28/04:00am 4.5 0.2 3.5 93 0.4 SE 15 17 8 9 1026.8 - 0.0
28/03:30am 4.3 0.0 3.3 93 0.4 ESE 15 15 8 8 1026.8 - 0.0
28/03:00am 4.4 0.5 3.4 93 0.4 SE 13 15 7 8 1026.9 1026.8 0.0
28/02:30am 4.7 0.5 3.8 94 0.4 ESE 15 17 8 9 1027.0 - 0.0
28/02:00am 4.0 0.4 3.0 93 0.4 ESE 11 13 6 7 1027.2 - 0.0
28/01:30am 4.3 0.4 3.3 93 0.4 ESE 13 15 7 8 1027.3 - 0.0
28/01:00am 5.1 1.0 4.1 93 0.4 ESE 15 15 8 8 1027.7 - 0.0
28/12:30am 5.5 1.4 4.5 93 0.4 ESE 15 17 8 9 1027.7 - 0.0
28/12:00am 5.3 1.6 4.4 94 0.4 SE 13 15 7 8 1027.9 1027.8 0.0
 
Date/Time
CST
Temp
°C
App
Temp
°C
Dew
Point
Rel
Hum
%
Delta-T
°C
Wind Press
QNH
hPa
Press
MSL
hPa
Rain
since 9 am
mm
Dir
 
Spd
km/h
Gust
km/h
Spd
kts
Gust
kts
27/11:30pm 5.7 1.7 4.7 93 0.4 SE 15 17 8 9 1027.9 - 0.0
27/11:00pm 5.3 1.2 4.1 92 0.5 ESE 15 17 8 9 1028.1 - 0.0
27/10:30pm 5.7 1.6 4.3 91 0.6 SE 15 15 8 8 1028.0 - 0.0
27/10:00pm 6.0 1.9 4.6 91 0.6 ESE 15 17 8 9 1027.8 - 0.0
27/09:30pm 5.9 1.8 4.5 91 0.6 SE 15 17 8 9 1027.8 - 0.0
27/09:00pm 6.9 3.3 5.2 89 0.7 ESE 13 15 7 8 1027.5 1027.4 0.0
27/08:30pm 7.2 3.4 5.8 91 0.6 ESE 15 15 8 8 1027.4 - 0.0
27/08:00pm 7.0 3.0 5.0 87 0.9 SE 15 17 8 9 1027.2 - 0.0
27/07:30pm 7.5 3.5 5.0 84 1.1 SE 15 17 8 9 1026.7 - 0.0
27/07:00pm 10.6 8.1 6.4 75 2.0 SSE 9 11 5 6 1026.3 - 0.0
27/06:30pm 11.0 7.7 6.6 74 2.1 S 13 13 7 7 1026.1 - 0.0
27/06:00pm 14.0 11.5 8.2 68 2.9 SSW 11 13 6 7 1026.0 1025.9 0.0
27/05:30pm 18.1 15.7 7.2 49 5.5 WSW 9 11 5 6 1025.8 - 0.0
27/05:00pm 20.2 18.3 6.9 42 6.7 WNW 6 7 3 4 1025.4 - 0.0
27/04:30pm 20.6 18.6 6.2 39 7.2 NW 6 9 3 5 1025.2 - 0.0
27/04:00pm 20.5 17.8 5.7 38 7.4 NW 9 11 5 6 1025.3 - 0.0

Other Formats:

Comma delimited format used in spreadsheet applications
http://www.bom.gov.au/fwo/IDS60801/IDS60801.94685.axf

JavaScript Object Notation format (JSON) in row-major order
http://www.bom.gov.au/fwo/IDS60801/IDS60801.94685.json